sensor_id;sensor_type;location;lat;lon;timestamp;temperature;humidity
41939;DHT22;23057;48.554;14.454;2023-04-25T00:02:00;4.70;99.90
41939;DHT22;23057;48.554;14.454;2023-04-25T00:04:31;4.70;99.90
41939;DHT22;23057;48.554;14.454;2023-04-25T00:07:03;4.70;99.90
41939;DHT22;23057;48.554;14.454;2023-04-25T00:09:34;4.50;99.90
41939;DHT22;23057;48.554;14.454;2023-04-25T00:12:05;4.60;99.90
41939;DHT22;23057;48.554;14.454;2023-04-25T00:14:36;4.50;99.90
41939;DHT22;23057;48.554;14.454;2023-04-25T00:17:07;4.40;99.90
41939;DHT22;23057;48.554;14.454;2023-04-25T00:19:38;4.40;99.90
41939;DHT22;23057;48.554;14.454;2023-04-25T00:22:08;4.40;99.90
41939;DHT22;23057;48.554;14.454;2023-04-25T00:24:39;4.40;99.90
41939;DHT22;23057;48.554;14.454;2023-04-25T00:27:10;4.40;99.90
41939;DHT22;23057;48.554;14.454;2023-04-25T00:29:41;4.40;99.90
41939;DHT22;23057;48.554;14.454;2023-04-25T00:32:11;4.40;99.90
41939;DHT22;23057;48.554;14.454;2023-04-25T00:34:42;4.40;99.90
41939;DHT22;23057;48.554;14.454;2023-04-25T00:37:13;4.30;99.90
41939;DHT22;23057;48.554;14.454;2023-04-25T00:39:44;4.30;99.90
41939;DHT22;23057;48.554;14.454;2023-04-25T00:42:15;4.30;99.90
41939;DHT22;23057;48.554;14.454;2023-04-25T00:44:46;4.30;99.90
41939;DHT22;23057;48.554;14.454;2023-04-25T00:47:17;4.00;99.90
41939;DHT22;23057;48.554;14.454;2023-04-25T00:49:48;3.80;99.90
41939;DHT22;23057;48.554;14.454;2023-04-25T00:52:19;3.90;99.90
41939;DHT22;23057;48.554;14.454;2023-04-25T00:54:50;3.90;99.90
41939;DHT22;23057;48.554;14.454;2023-04-25T00:57:21;4.00;99.90
41939;DHT22;23057;48.554;14.454;2023-04-25T00:59:52;4.10;99.90
41939;DHT22;23057;48.554;14.454;2023-04-25T01:02:24;4.10;99.90
41939;DHT22;23057;48.554;14.454;2023-04-25T01:04:57;4.20;99.90
41939;DHT22;23057;48.554;14.454;2023-04-25T01:07:28;4.20;99.90
41939;DHT22;23057;48.554;14.454;2023-04-25T01:09:59;4.20;99.90
41939;DHT22;23057;48.554;14.454;2023-04-25T01:12:31;4.30;99.90
41939;DHT22;23057;48.554;14.454;2023-04-25T01:15:02;4.30;99.90
41939;DHT22;23057;48.554;14.454;2023-04-25T01:17:34;4.30;99.90
41939;DHT22;23057;48.554;14.454;2023-04-25T01:20:06;4.20;99.90
41939;DHT22;23057;48.554;14.454;2023-04-25T01:22:39;4.10;99.90
41939;DHT22;23057;48.554;14.454;2023-04-25T01:25:10;4.00;99.90
41939;DHT22;23057;48.554;14.454;2023-04-25T01:27:41;3.90;99.90
41939;DHT22;23057;48.554;14.454;2023-04-25T01:30:12;3.90;99.90
41939;DHT22;23057;48.554;14.454;2023-04-25T01:32:44;3.90;99.90
41939;DHT22;23057;48.554;14.454;2023-04-25T01:35:15;4.00;99.90
41939;DHT22;23057;48.554;14.454;2023-04-25T01:37:46;3.90;99.90
41939;DHT22;23057;48.554;14.454;2023-04-25T01:40:16;3.70;99.90
41939;DHT22;23057;48.554;14.454;2023-04-25T01:42:49;3.60;99.90
41939;DHT22;23057;48.554;14.454;2023-04-25T01:45:20;3.60;99.90
41939;DHT22;23057;48.554;14.454;2023-04-25T01:47:51;3.50;99.90
41939;DHT22;23057;48.554;14.454;2023-04-25T01:50:22;3.50;99.90
41939;DHT22;23057;48.554;14.454;2023-04-25T01:52:53;3.40;99.90
41939;DHT22;23057;48.554;14.454;2023-04-25T01:55:24;3.30;99.90
41939;DHT22;23057;48.554;14.454;2023-04-25T01:57:55;3.40;99.90
41939;DHT22;23057;48.554;14.454;2023-04-25T02:00:26;3.40;99.90
41939;DHT22;23057;48.554;14.454;2023-04-25T02:02:58;3.30;99.90
41939;DHT22;23057;48.554;14.454;2023-04-25T02:05:33;3.10;99.90
41939;DHT22;23057;48.554;14.454;2023-04-25T02:08:07;3.00;99.90
41939;DHT22;23057;48.554;14.454;2023-04-25T02:10:39;2.90;99.90
41939;DHT22;23057;48.554;14.454;2023-04-25T02:13:10;2.80;99.90
41939;DHT22;23057;48.554;14.454;2023-04-25T02:15:41;2.80;99.90
41939;DHT22;23057;48.554;14.454;2023-04-25T02:18:11;2.90;99.90
41939;DHT22;23057;48.554;14.454;2023-04-25T02:20:42;2.90;99.90
41939;DHT22;23057;48.554;14.454;2023-04-25T02:23:14;3.00;99.90
41939;DHT22;23057;48.554;14.454;2023-04-25T02:25:45;3.00;99.90
41939;DHT22;23057;48.554;14.454;2023-04-25T02:28:16;3.20;99.90
41939;DHT22;23057;48.554;14.454;2023-04-25T02:30:47;3.30;99.90
41939;DHT22;23057;48.554;14.454;2023-04-25T02:33:17;3.30;99.90
41939;DHT22;23057;48.554;14.454;2023-04-25T02:35:48;3.30;99.90
41939;DHT22;23057;48.554;14.454;2023-04-25T02:38:19;3.20;99.90
41939;DHT22;23057;48.554;14.454;2023-04-25T02:40:50;3.30;99.90
41939;DHT22;23057;48.554;14.454;2023-04-25T02:43:20;3.30;99.90
41939;DHT22;23057;48.554;14.454;2023-04-25T02:45:52;3.30;99.90
41939;DHT22;23057;48.554;14.454;2023-04-25T02:48:23;3.30;99.90
41939;DHT22;23057;48.554;14.454;2023-04-25T02:50:54;3.30;99.90
41939;DHT22;23057;48.554;14.454;2023-04-25T02:53:24;3.30;99.90
41939;DHT22;23057;48.554;14.454;2023-04-25T02:55:55;3.30;99.90
41939;DHT22;23057;48.554;14.454;2023-04-25T02:58:28;3.30;99.90
41939;DHT22;23057;48.554;14.454;2023-04-25T03:00:59;3.20;99.90
41939;DHT22;23057;48.554;14.454;2023-04-25T03:03:30;3.20;99.90
41939;DHT22;23057;48.554;14.454;2023-04-25T03:06:01;3.10;99.90
41939;DHT22;23057;48.554;14.454;2023-04-25T03:08:32;3.00;99.90
41939;DHT22;23057;48.554;14.454;2023-04-25T03:11:04;3.00;99.90
41939;DHT22;23057;48.554;14.454;2023-04-25T03:13:35;3.10;99.90
41939;DHT22;23057;48.554;14.454;2023-04-25T03:16:06;3.10;99.90
41939;DHT22;23057;48.554;14.454;2023-04-25T03:18:37;3.10;99.90
41939;DHT22;23057;48.554;14.454;2023-04-25T03:21:07;3.10;99.90
41939;DHT22;23057;48.554;14.454;2023-04-25T03:23:38;3.10;99.90
41939;DHT22;23057;48.554;14.454;2023-04-25T03:26:09;3.10;99.90
41939;DHT22;23057;48.554;14.454;2023-04-25T03:28:40;3.10;99.90
41939;DHT22;23057;48.554;14.454;2023-04-25T03:31:11;3.00;99.90
41939;DHT22;23057;48.554;14.454;2023-04-25T03:33:42;3.00;99.90
41939;DHT22;23057;48.554;14.454;2023-04-25T03:36:13;2.90;99.90
41939;DHT22;23057;48.554;14.454;2023-04-25T03:38:43;2.80;99.90
41939;DHT22;23057;48.554;14.454;2023-04-25T03:41:14;2.70;99.90
41939;DHT22;23057;48.554;14.454;2023-04-25T03:43:45;2.70;99.90
41939;DHT22;23057;48.554;14.454;2023-04-25T03:46:16;2.50;99.90
41939;DHT22;23057;48.554;14.454;2023-04-25T03:48:46;2.30;99.90
41939;DHT22;23057;48.554;14.454;2023-04-25T03:51:17;2.40;99.90
41939;DHT22;23057;48.554;14.454;2023-04-25T03:53:48;2.40;99.90
41939;DHT22;23057;48.554;14.454;2023-04-25T03:56:19;2.40;99.90
41939;DHT22;23057;48.554;14.454;2023-04-25T03:58:51;2.50;99.90
41939;DHT22;23057;48.554;14.454;2023-04-25T04:01:21;2.50;99.90
41939;DHT22;23057;48.554;14.454;2023-04-25T04:03:52;2.50;99.90
41939;DHT22;23057;48.554;14.454;2023-04-25T04:06:23;2.40;99.90
41939;DHT22;23057;48.554;14.454;2023-04-25T04:08:54;2.40;99.90
41939;DHT22;23057;48.554;14.454;2023-04-25T04:11:25;2.40;99.90
41939;DHT22;23057;48.554;14.454;2023-04-25T04:13:56;2.40;99.90
41939;DHT22;23057;48.554;14.454;2023-04-25T04:16:27;2.60;99.90
41939;DHT22;23057;48.554;14.454;2023-04-25T04:18:57;3.30;99.90
41939;DHT22;23057;48.554;14.454;2023-04-25T04:21:28;4.20;99.90
41939;DHT22;23057;48.554;14.454;2023-04-25T04:24:00;4.50;99.90
41939;DHT22;23057;48.554;14.454;2023-04-25T04:26:31;4.60;99.90
41939;DHT22;23057;48.554;14.454;2023-04-25T04:29:03;4.70;99.90
41939;DHT22;23057;48.554;14.454;2023-04-25T04:31:33;4.50;99.90
41939;DHT22;23057;48.554;14.454;2023-04-25T04:34:04;4.30;99.90
41939;DHT22;23057;48.554;14.454;2023-04-25T04:36:35;3.80;99.90
41939;DHT22;23057;48.554;14.454;2023-04-25T04:39:06;3.60;99.90
41939;DHT22;23057;48.554;14.454;2023-04-25T04:41:36;3.30;99.90
41939;DHT22;23057;48.554;14.454;2023-04-25T04:44:07;3.00;99.90
41939;DHT22;23057;48.554;14.454;2023-04-25T04:46:39;2.60;99.90
41939;DHT22;23057;48.554;14.454;2023-04-25T04:49:11;2.30;99.90
41939;DHT22;23057;48.554;14.454;2023-04-25T04:51:43;2.20;99.90
41939;DHT22;23057;48.554;14.454;2023-04-25T04:54:17;2.20;99.90
41939;DHT22;23057;48.554;14.454;2023-04-25T04:56:48;3.70;99.90
41939;DHT22;23057;48.554;14.454;2023-04-25T04:59:19;6.40;99.90
41939;DHT22;23057;48.554;14.454;2023-04-25T05:01:49;7.80;99.90
41939;DHT22;23057;48.554;14.454;2023-04-25T05:04:20;9.10;99.90
41939;DHT22;23057;48.554;14.454;2023-04-25T05:06:51;10.60;99.90
41939;DHT22;23057;48.554;14.454;2023-04-25T05:09:22;11.10;99.90
41939;DHT22;23057;48.554;14.454;2023-04-25T05:11:55;11.70;99.90
41939;DHT22;23057;48.554;14.454;2023-04-25T05:14:26;11.70;1.00
41939;DHT22;23057;48.554;14.454;2023-04-25T05:16:57;12.00;88.40
41939;DHT22;23057;48.554;14.454;2023-04-25T05:19:28;9.00;99.90
41939;DHT22;23057;48.554;14.454;2023-04-25T05:21:59;9.40;99.90
41939;DHT22;23057;48.554;14.454;2023-04-25T05:24:30;11.50;29.60
41939;DHT22;23057;48.554;14.454;2023-04-25T05:27:01;10.00;99.90
41939;DHT22;23057;48.554;14.454;2023-04-25T05:29:32;10.70;78.40
41939;DHT22;23057;48.554;14.454;2023-04-25T05:32:04;10.70;73.10
41939;DHT22;23057;48.554;14.454;2023-04-25T05:34:35;11.40;24.30
41939;DHT22;23057;48.554;14.454;2023-04-25T05:37:07;11.00;30.80
41939;DHT22;23057;48.554;14.454;2023-04-25T05:39:37;12.10;1.00
41939;DHT22;23057;48.554;14.454;2023-04-25T05:42:08;12.90;1.00
41939;DHT22;23057;48.554;14.454;2023-04-25T05:44:39;11.90;1.00
41939;DHT22;23057;48.554;14.454;2023-04-25T05:47:10;10.90;1.00
41939;DHT22;23057;48.554;14.454;2023-04-25T05:49:40;10.10;48.30
41939;DHT22;23057;48.554;14.454;2023-04-25T05:52:11;10.30;52.60
41939;DHT22;23057;48.554;14.454;2023-04-25T05:54:42;9.80;21.10
41939;DHT22;23057;48.554;14.454;2023-04-25T05:57:31;9.10;99.90
41939;DHT22;23057;48.554;14.454;2023-04-25T06:00:02;9.40;99.90
41939;DHT22;23057;48.554;14.454;2023-04-25T06:02:34;12.10;59.80
41939;DHT22;23057;48.554;14.454;2023-04-25T06:05:05;14.10;1.00
41939;DHT22;23057;48.554;14.454;2023-04-25T06:07:36;15.60;99.90
41939;DHT22;23057;48.554;14.454;2023-04-25T06:10:07;15.60;99.90
41939;DHT22;23057;48.554;14.454;2023-04-25T06:12:39;14.10;99.90
41939;DHT22;23057;48.554;14.454;2023-04-25T06:15:09;14.70;99.90
41939;DHT22;23057;48.554;14.454;2023-04-25T06:17:40;13.90;99.90
41939;DHT22;23057;48.554;14.454;2023-04-25T06:20:11;12.90;99.90
41939;DHT22;23057;48.554;14.454;2023-04-25T06:22:42;13.30;99.90
41939;DHT22;23057;48.554;14.454;2023-04-25T06:25:13;12.30;99.90
41939;DHT22;23057;48.554;14.454;2023-04-25T06:27:43;11.40;1.00
41939;DHT22;23057;48.554;14.454;2023-04-25T06:30:14;10.80;1.00
41939;DHT22;23057;48.554;14.454;2023-04-25T06:32:46;10.30;49.20
41939;DHT22;23057;48.554;14.454;2023-04-25T06:35:18;9.70;99.90
41939;DHT22;23057;48.554;14.454;2023-04-25T06:37:49;8.50;99.90
41939;DHT22;23057;48.554;14.454;2023-04-25T06:40:20;8.20;99.90
41939;DHT22;23057;48.554;14.454;2023-04-25T06:42:51;7.80;1.00
41939;DHT22;23057;48.554;14.454;2023-04-25T06:45:21;7.60;99.90
41939;DHT22;23057;48.554;14.454;2023-04-25T06:47:52;7.50;1.00
41939;DHT22;23057;48.554;14.454;2023-04-25T06:50:23;7.40;1.00
41939;DHT22;23057;48.554;14.454;2023-04-25T06:52:53;7.40;1.00
41939;DHT22;23057;48.554;14.454;2023-04-25T06:55:24;7.30;1.00
41939;DHT22;23057;48.554;14.454;2023-04-25T06:57:55;7.40;1.00
41939;DHT22;23057;48.554;14.454;2023-04-25T07:00:26;7.60;3.30
41939;DHT22;23057;48.554;14.454;2023-04-25T07:02:56;7.60;11.10
41939;DHT22;23057;48.554;14.454;2023-04-25T07:05:27;7.40;1.00
41939;DHT22;23057;48.554;14.454;2023-04-25T07:07:58;7.40;1.00
41939;DHT22;23057;48.554;14.454;2023-04-25T07:10:29;7.50;1.00
41939;DHT22;23057;48.554;14.454;2023-04-25T07:13:00;7.90;1.00
41939;DHT22;23057;48.554;14.454;2023-04-25T07:15:30;8.20;1.00
41939;DHT22;23057;48.554;14.454;2023-04-25T07:18:01;8.30;99.90
41939;DHT22;23057;48.554;14.454;2023-04-25T07:20:32;8.30;99.90
41939;DHT22;23057;48.554;14.454;2023-04-25T07:23:03;8.80;99.90
41939;DHT22;23057;48.554;14.454;2023-04-25T07:25:33;9.90;99.90
41939;DHT22;23057;48.554;14.454;2023-04-25T07:28:05;10.50;99.90
41939;DHT22;23057;48.554;14.454;2023-04-25T07:30:36;10.70;54.40
41939;DHT22;23057;48.554;14.454;2023-04-25T07:33:06;10.80;32.80
41939;DHT22;23057;48.554;14.454;2023-04-25T07:35:37;11.20;1.00
41939;DHT22;23057;48.554;14.454;2023-04-25T07:38:08;11.20;1.00
41939;DHT22;23057;48.554;14.454;2023-04-25T07:40:40;10.80;1.00
41939;DHT22;23057;48.554;14.454;2023-04-25T07:43:11;10.70;1.00
41939;DHT22;23057;48.554;14.454;2023-04-25T07:45:45;12.10;1.00
41939;DHT22;23057;48.554;14.454;2023-04-25T07:48:17;11.80;1.00
41939;DHT22;23057;48.554;14.454;2023-04-25T07:50:51;11.70;1.00
41939;DHT22;23057;48.554;14.454;2023-04-25T07:53:22;11.60;1.00
41939;DHT22;23057;48.554;14.454;2023-04-25T07:55:53;12.00;1.00
41939;DHT22;23057;48.554;14.454;2023-04-25T07:58:24;12.30;1.00
41939;DHT22;23057;48.554;14.454;2023-04-25T08:00:54;12.60;1.00
41939;DHT22;23057;48.554;14.454;2023-04-25T08:03:25;11.70;1.00
41939;DHT22;23057;48.554;14.454;2023-04-25T08:05:56;10.80;1.00
41939;DHT22;23057;48.554;14.454;2023-04-25T08:08:26;10.20;1.00
41939;DHT22;23057;48.554;14.454;2023-04-25T08:10:57;10.20;1.00
41939;DHT22;23057;48.554;14.454;2023-04-25T08:13:28;9.90;1.00
41939;DHT22;23057;48.554;14.454;2023-04-25T08:15:59;9.90;1.00
41939;DHT22;23057;48.554;14.454;2023-04-25T08:18:29;10.50;1.00
41939;DHT22;23057;48.554;14.454;2023-04-25T08:21:01;11.00;1.00
41939;DHT22;23057;48.554;14.454;2023-04-25T08:23:31;10.60;1.00
41939;DHT22;23057;48.554;14.454;2023-04-25T08:26:03;10.30;1.00
41939;DHT22;23057;48.554;14.454;2023-04-25T08:28:35;10.30;1.00
41939;DHT22;23057;48.554;14.454;2023-04-25T08:31:05;10.00;1.00
41939;DHT22;23057;48.554;14.454;2023-04-25T08:33:36;9.80;1.00
41939;DHT22;23057;48.554;14.454;2023-04-25T08:36:07;9.40;1.00
41939;DHT22;23057;48.554;14.454;2023-04-25T08:38:38;9.30;1.00
41939;DHT22;23057;48.554;14.454;2023-04-25T08:41:09;9.30;18.60
41939;DHT22;23057;48.554;14.454;2023-04-25T08:43:42;9.50;41.60
41939;DHT22;23057;48.554;14.454;2023-04-25T08:46:15;9.40;1.00
41939;DHT22;23057;48.554;14.454;2023-04-25T08:48:48;9.50;25.80
41939;DHT22;23057;48.554;14.454;2023-04-25T08:51:21;9.60;1.00
41939;DHT22;23057;48.554;14.454;2023-04-25T08:53:55;9.70;1.00
41939;DHT22;23057;48.554;14.454;2023-04-25T08:56:38;9.80;1.00
41939;DHT22;23057;48.554;14.454;2023-04-25T08:59:13;9.60;1.00
41939;DHT22;23057;48.554;14.454;2023-04-25T09:01:44;9.50;5.20
41939;DHT22;23057;48.554;14.454;2023-04-25T09:04:15;9.30;5.30
41939;DHT22;23057;48.554;14.454;2023-04-25T09:06:47;9.30;23.10
41939;DHT22;23057;48.554;14.454;2023-04-25T09:09:18;9.30;99.90
41939;DHT22;23057;48.554;14.454;2023-04-25T09:11:49;9.10;96.10
41939;DHT22;23057;48.554;14.454;2023-04-25T09:14:20;8.30;99.90
41939;DHT22;23057;48.554;14.454;2023-04-25T09:19:27;6.90;1.00
41939;DHT22;23057;48.554;14.454;2023-04-25T09:22:01;6.60;99.90
41939;DHT22;23057;48.554;14.454;2023-04-25T09:27:19;6.20;92.00
41939;DHT22;23057;48.554;14.454;2023-04-25T09:29:56;6.20;99.90
41939;DHT22;23057;48.554;14.454;2023-04-25T09:32:31;6.40;99.90
41939;DHT22;23057;48.554;14.454;2023-04-25T09:35:02;6.90;99.90
41939;DHT22;23057;48.554;14.454;2023-04-25T09:37:34;7.50;99.90
41939;DHT22;23057;48.554;14.454;2023-04-25T09:40:06;8.70;99.90
41939;DHT22;23057;48.554;14.454;2023-04-25T09:42:40;9.30;99.90
41939;DHT22;23057;48.554;14.454;2023-04-25T09:45:12;9.90;99.90
41939;DHT22;23057;48.554;14.454;2023-04-25T09:47:45;10.40;1.00
41939;DHT22;23057;48.554;14.454;2023-04-25T09:50:17;10.60;99.90
41939;DHT22;23057;48.554;14.454;2023-04-25T09:53:02;11.00;1.00
41939;DHT22;23057;48.554;14.454;2023-04-25T09:55:36;10.60;99.90
41939;DHT22;23057;48.554;14.454;2023-04-25T09:58:08;11.00;99.90
41939;DHT22;23057;48.554;14.454;2023-04-25T10:00:42;11.20;99.90
41939;DHT22;23057;48.554;14.454;2023-04-25T10:03:13;11.30;99.90
41939;DHT22;23057;48.554;14.454;2023-04-25T10:05:46;11.10;99.90
41939;DHT22;23057;48.554;14.454;2023-04-25T10:08:19;11.60;99.90
41939;DHT22;23057;48.554;14.454;2023-04-25T10:10:51;11.20;99.90
41939;DHT22;23057;48.554;14.454;2023-04-25T10:13:22;11.70;99.90
41939;DHT22;23057;48.554;14.454;2023-04-25T10:15:53;11.90;99.90
41939;DHT22;23057;48.554;14.454;2023-04-25T10:18:27;12.30;99.90
41939;DHT22;23057;48.554;14.454;2023-04-25T10:21:00;12.30;60.90
41939;DHT22;23057;48.554;14.454;2023-04-25T10:23:34;11.80;24.20
41939;DHT22;23057;48.554;14.454;2023-04-25T10:26:08;11.60;28.00
41939;DHT22;23057;48.554;14.454;2023-04-25T10:28:55;11.80;1.00
41939;DHT22;23057;48.554;14.454;2023-04-25T10:31:31;11.80;14.20
41939;DHT22;23057;48.554;14.454;2023-04-25T10:34:02;10.90;21.60
41939;DHT22;23057;48.554;14.454;2023-04-25T10:36:33;11.30;41.50
41939;DHT22;23057;48.554;14.454;2023-04-25T10:39:05;11.50;1.00
41939;DHT22;23057;48.554;14.454;2023-04-25T10:41:48;11.20;1.00
41939;DHT22;23057;48.554;14.454;2023-04-25T10:44:28;11.40;1.00
41939;DHT22;23057;48.554;14.454;2023-04-25T10:47:00;11.50;1.00
41939;DHT22;23057;48.554;14.454;2023-04-25T10:49:37;11.00;1.00
41939;DHT22;23057;48.554;14.454;2023-04-25T10:54:56;11.50;99.90
41939;DHT22;23057;48.554;14.454;2023-04-25T11:00:12;11.70;99.90
41939;DHT22;23057;48.554;14.454;2023-04-25T11:02:51;11.80;99.90
41939;DHT22;23057;48.554;14.454;2023-04-25T11:08:00;12.70;1.00
41939;DHT22;23057;48.554;14.454;2023-04-25T11:10:33;13.10;99.90
41939;DHT22;23057;48.554;14.454;2023-04-25T11:13:07;13.10;99.90
41939;DHT22;23057;48.554;14.454;2023-04-25T11:15:38;13.00;99.90
41939;DHT22;23057;48.554;14.454;2023-04-25T11:18:09;12.50;99.90
41939;DHT22;23057;48.554;14.454;2023-04-25T11:20:39;12.20;1.00
41939;DHT22;23057;48.554;14.454;2023-04-25T11:23:13;12.70;1.00
41939;DHT22;23057;48.554;14.454;2023-04-25T11:25:46;13.30;1.00
41939;DHT22;23057;48.554;14.454;2023-04-25T11:28:20;12.20;1.00
41939;DHT22;23057;48.554;14.454;2023-04-25T11:30:52;11.50;1.00
41939;DHT22;23057;48.554;14.454;2023-04-25T11:33:23;10.70;1.00
41939;DHT22;23057;48.554;14.454;2023-04-25T11:35:55;9.80;1.00
41939;DHT22;23057;48.554;14.454;2023-04-25T11:38:26;10.00;77.00
41939;DHT22;23057;48.554;14.454;2023-04-25T11:40:57;10.70;75.00
41939;DHT22;23057;48.554;14.454;2023-04-25T11:43:28;11.00;1.00
41939;DHT22;23057;48.554;14.454;2023-04-25T11:45:59;11.00;1.00
41939;DHT22;23057;48.554;14.454;2023-04-25T11:48:36;10.90;1.00
41939;DHT22;23057;48.554;14.454;2023-04-25T11:51:08;11.20;1.00
41939;DHT22;23057;48.554;14.454;2023-04-25T11:53:44;11.20;1.00
41939;DHT22;23057;48.554;14.454;2023-04-25T11:56:15;11.70;1.00
41939;DHT22;23057;48.554;14.454;2023-04-25T11:58:56;12.00;1.00
41939;DHT22;23057;48.554;14.454;2023-04-25T12:01:33;12.10;1.00
41939;DHT22;23057;48.554;14.454;2023-04-25T12:04:22;12.10;1.00
41939;DHT22;23057;48.554;14.454;2023-04-25T12:06:55;12.40;1.00
41939;DHT22;23057;48.554;14.454;2023-04-25T12:09:32;13.10;1.00
41939;DHT22;23057;48.554;14.454;2023-04-25T12:12:04;12.20;1.00
41939;DHT22;23057;48.554;14.454;2023-04-25T12:14:35;12.30;1.00
41939;DHT22;23057;48.554;14.454;2023-04-25T12:17:06;11.70;1.00
41939;DHT22;23057;48.554;14.454;2023-04-25T12:19:38;11.70;1.00
41939;DHT22;23057;48.554;14.454;2023-04-25T12:22:23;11.20;1.00
41939;DHT22;23057;48.554;14.454;2023-04-25T12:24:55;11.00;1.00
41939;DHT22;23057;48.554;14.454;2023-04-25T12:27:28;11.00;1.00
41939;DHT22;23057;48.554;14.454;2023-04-25T12:30:01;11.40;1.00
41939;DHT22;23057;48.554;14.454;2023-04-25T12:32:34;11.30;1.00
41939;DHT22;23057;48.554;14.454;2023-04-25T12:35:06;11.10;1.00
41939;DHT22;23057;48.554;14.454;2023-04-25T12:37:37;10.90;1.00
41939;DHT22;23057;48.554;14.454;2023-04-25T12:40:07;10.70;1.00
41939;DHT22;23057;48.554;14.454;2023-04-25T12:42:39;10.50;1.00
41939;DHT22;23057;48.554;14.454;2023-04-25T12:45:09;10.30;1.00
41939;DHT22;23057;48.554;14.454;2023-04-25T12:47:40;10.30;1.00
41939;DHT22;23057;48.554;14.454;2023-04-25T12:50:11;10.20;1.00
41939;DHT22;23057;48.554;14.454;2023-04-25T12:52:41;10.00;1.00
41939;DHT22;23057;48.554;14.454;2023-04-25T12:55:12;10.00;1.00
41939;DHT22;23057;48.554;14.454;2023-04-25T12:57:43;10.20;1.00
41939;DHT22;23057;48.554;14.454;2023-04-25T13:00:13;11.00;1.00
41939;DHT22;23057;48.554;14.454;2023-04-25T13:02:45;11.90;1.00
41939;DHT22;23057;48.554;14.454;2023-04-25T13:05:19;12.30;99.90
41939;DHT22;23057;48.554;14.454;2023-04-25T13:07:50;13.00;99.90
41939;DHT22;23057;48.554;14.454;2023-04-25T13:10:21;13.10;99.90
41939;DHT22;23057;48.554;14.454;2023-04-25T13:12:52;12.80;99.90
41939;DHT22;23057;48.554;14.454;2023-04-25T13:15:23;12.40;99.90
41939;DHT22;23057;48.554;14.454;2023-04-25T13:17:54;11.60;99.90
41939;DHT22;23057;48.554;14.454;2023-04-25T13:20:26;11.00;99.90
41939;DHT22;23057;48.554;14.454;2023-04-25T13:22:56;10.90;99.90
41939;DHT22;23057;48.554;14.454;2023-04-25T13:25:27;11.60;99.90
41939;DHT22;23057;48.554;14.454;2023-04-25T13:27:58;11.30;99.90
41939;DHT22;23057;48.554;14.454;2023-04-25T13:30:29;11.60;99.90
41939;DHT22;23057;48.554;14.454;2023-04-25T13:32:59;12.20;99.90
41939;DHT22;23057;48.554;14.454;2023-04-25T13:35:34;11.90;99.90
41939;DHT22;23057;48.554;14.454;2023-04-25T13:38:06;12.30;99.90
41939;DHT22;23057;48.554;14.454;2023-04-25T13:40:36;12.00;99.90
41939;DHT22;23057;48.554;14.454;2023-04-25T13:43:07;12.00;99.90
41939;DHT22;23057;48.554;14.454;2023-04-25T13:45:39;12.10;99.90
41939;DHT22;23057;48.554;14.454;2023-04-25T13:48:09;12.60;99.90
41939;DHT22;23057;48.554;14.454;2023-04-25T13:50:40;12.60;99.90
41939;DHT22;23057;48.554;14.454;2023-04-25T13:53:11;10.70;99.90
41939;DHT22;23057;48.554;14.454;2023-04-25T13:55:42;9.90;1.00
41939;DHT22;23057;48.554;14.454;2023-04-25T13:58:13;9.80;1.00
41939;DHT22;23057;48.554;14.454;2023-04-25T14:00:43;8.80;1.00
41939;DHT22;23057;48.554;14.454;2023-04-25T14:03:16;8.00;99.90
41939;DHT22;23057;48.554;14.454;2023-04-25T14:05:46;7.70;99.90
41939;DHT22;23057;48.554;14.454;2023-04-25T14:08:17;7.30;99.90
41939;DHT22;23057;48.554;14.454;2023-04-25T14:10:48;7.00;99.90
41939;DHT22;23057;48.554;14.454;2023-04-25T14:13:19;6.60;1.00
41939;DHT22;23057;48.554;14.454;2023-04-25T14:15:50;6.40;99.90
41939;DHT22;23057;48.554;14.454;2023-04-25T14:18:20;6.20;1.00
41939;DHT22;23057;48.554;14.454;2023-04-25T14:20:51;6.20;99.90
41939;DHT22;23057;48.554;14.454;2023-04-25T14:23:22;6.20;66.90
41939;DHT22;23057;48.554;14.454;2023-04-25T14:25:53;6.20;99.90
41939;DHT22;23057;48.554;14.454;2023-04-25T14:28:24;6.00;99.90
41939;DHT22;23057;48.554;14.454;2023-04-25T14:30:54;6.00;99.90
41939;DHT22;23057;48.554;14.454;2023-04-25T14:33:25;6.10;99.90
41939;DHT22;23057;48.554;14.454;2023-04-25T14:35:56;6.30;99.90
41939;DHT22;23057;48.554;14.454;2023-04-25T14:38:27;6.30;99.90
41939;DHT22;23057;48.554;14.454;2023-04-25T14:40:58;6.30;99.90
41939;DHT22;23057;48.554;14.454;2023-04-25T14:43:29;6.50;99.90
41939;DHT22;23057;48.554;14.454;2023-04-25T14:45:59;6.90;99.90
41939;DHT22;23057;48.554;14.454;2023-04-25T14:48:31;7.50;99.90
41939;DHT22;23057;48.554;14.454;2023-04-25T14:51:03;7.60;47.60
41939;DHT22;23057;48.554;14.454;2023-04-25T14:53:34;7.80;99.90
41939;DHT22;23057;48.554;14.454;2023-04-25T14:56:05;8.10;99.90
41939;DHT22;23057;48.554;14.454;2023-04-25T14:58:37;8.40;99.90
41939;DHT22;23057;48.554;14.454;2023-04-25T15:01:10;8.70;99.90
41939;DHT22;23057;48.554;14.454;2023-04-25T15:03:41;8.60;1.00
41939;DHT22;23057;48.554;14.454;2023-04-25T15:06:12;8.60;84.60
41939;DHT22;23057;48.554;14.454;2023-04-25T15:08:43;8.50;39.80
41939;DHT22;23057;48.554;14.454;2023-04-25T15:11:13;8.40;4.00
41939;DHT22;23057;48.554;14.454;2023-04-25T15:13:44;8.30;99.90
41939;DHT22;23057;48.554;14.454;2023-04-25T15:16:15;8.10;99.90
41939;DHT22;23057;48.554;14.454;2023-04-25T15:18:46;8.20;99.90
41939;DHT22;23057;48.554;14.454;2023-04-25T15:21:16;8.00;34.10
41939;DHT22;23057;48.554;14.454;2023-04-25T15:23:47;8.10;98.50
41939;DHT22;23057;48.554;14.454;2023-04-25T15:26:18;8.00;99.90
41939;DHT22;23057;48.554;14.454;2023-04-25T15:28:49;7.90;28.10
41939;DHT22;23057;48.554;14.454;2023-04-25T15:31:20;7.70;99.90
41939;DHT22;23057;48.554;14.454;2023-04-25T15:33:52;7.50;99.90
41939;DHT22;23057;48.554;14.454;2023-04-25T15:36:23;7.30;1.00
41939;DHT22;23057;48.554;14.454;2023-04-25T15:38:55;7.20;1.00
41939;DHT22;23057;48.554;14.454;2023-04-25T15:41:26;7.20;86.70
41939;DHT22;23057;48.554;14.454;2023-04-25T15:43:58;7.10;99.90
41939;DHT22;23057;48.554;14.454;2023-04-25T15:46:30;6.90;99.90
41939;DHT22;23057;48.554;14.454;2023-04-25T15:49:01;6.80;99.90
41939;DHT22;23057;48.554;14.454;2023-04-25T15:51:32;6.80;99.90
41939;DHT22;23057;48.554;14.454;2023-04-25T15:54:03;6.70;99.90
41939;DHT22;23057;48.554;14.454;2023-04-25T15:56:34;6.60;99.90
41939;DHT22;23057;48.554;14.454;2023-04-25T15:59:05;6.50;99.90
41939;DHT22;23057;48.554;14.454;2023-04-25T16:01:36;6.50;99.90
41939;DHT22;23057;48.554;14.454;2023-04-25T16:04:07;6.40;99.90
41939;DHT22;23057;48.554;14.454;2023-04-25T16:06:38;6.40;99.90
41939;DHT22;23057;48.554;14.454;2023-04-25T16:09:08;6.30;99.90
41939;DHT22;23057;48.554;14.454;2023-04-25T16:11:39;6.40;99.90